Time,TemperatureF,DewpointF,PressureIn,WindDirection,WindDirectionDegrees,WindSpeedMPH,WindSpeedGustMPH,Humidity,HourlyPrecipIn,Conditions,Clouds,dailyrainin,SoftwareType,DateUTC
2013-09-21 00:09:00,62.8,55.8,29.84,NNE,22,0.0,0.0,78,0.00,,,-99.99,Weather View 32 v60,2013-09-21 07:09:00,
2013-09-21 00:19:00,62.8,55.8,29.84,NNE,22,0.0,0.0,78,0.00,,,-99.99,Weather View 32 v60,2013-09-21 07:19:00,
2013-09-21 00:29:00,62.2,55.3,29.84,East,80,0.0,0.0,78,0.00,,,-99.99,Weather View 32 v60,2013-09-21 07:29:00,
2013-09-21 00:39:00,62.2,55.3,29.84,SSW,209,0.0,0.0,78,0.00,,,-99.99,Weather View 32 v60,2013-09-21 07:39:00,
2013-09-21 00:50:00,62.6,55.3,29.84,SE,128,0.0,4.0,77,0.00,,,-99.99,Weather View 32 v60,2013-09-21 07:50:00,
2013-09-21 00:59:00,63.0,55.3,29.84,SE,124,0.0,4.0,76,0.00,,,-99.99,Weather View 32 v60,2013-09-21 07:59:00,
2013-09-21 01:09:00,63.1,54.7,29.84,SSW,212,0.0,4.0,74,0.00,,,-99.99,Weather View 32 v60,2013-09-21 08:09:00,
2013-09-21 01:20:00,63.3,54.9,29.84,SSE,163,0.0,4.0,74,0.00,,,-99.99,Weather View 32 v60,2013-09-21 08:20:00,
2013-09-21 01:29:00,63.7,55.2,29.84,South,173,0.0,4.0,74,0.00,,,-99.99,Weather View 32 v60,2013-09-21 08:29:00,
2013-09-21 01:40:00,63.7,55.2,29.84,SSE,155,0.0,4.0,74,0.00,,,-99.99,Weather View 32 v60,2013-09-21 08:40:00,
2013-09-21 01:49:00,63.9,55.0,29.84,SSE,160,0.0,0.0,73,0.00,,,-99.99,Weather View 32 v60,2013-09-21 08:49:00,
2013-09-21 01:59:00,64.0,54.8,29.84,WSW,251,0.0,0.0,72,0.00,,,-99.99,Weather View 32 v60,2013-09-21 08:59:00,
2013-09-21 02:09:00,64.2,55.0,29.84,SSW,200,0.0,0.0,72,0.00,,,-99.99,Weather View 32 v60,2013-09-21 09:09:00,
2013-09-21 02:19:00,64.2,55.0,29.84,ESE,110,0.0,0.0,72,0.00,,,-99.99,Weather View 32 v60,2013-09-21 09:19:00,
2013-09-21 02:29:00,64.0,54.8,29.84,WNW,283,0.0,0.0,72,0.00,,,-99.99,Weather View 32 v60,2013-09-21 09:29:00,
2013-09-21 02:39:00,63.9,54.6,29.84,East,96,0.0,4.0,72,0.00,,,-99.99,Weather View 32 v60,2013-09-21 09:39:00,
2013-09-21 02:49:00,63.9,54.6,29.84,SE,130,0.0,5.0,72,0.00,,,-99.99,Weather View 32 v60,2013-09-21 09:49:00,
2013-09-21 02:59:00,64.2,55.0,29.84,ESE,120,0.0,5.0,72,0.00,,,-99.99,Weather View 32 v60,2013-09-21 09:59:00,
2013-09-21 03:09:00,64.6,54.9,29.84,WSW,245,0.0,5.0,71,0.00,,,-99.99,Weather View 32 v60,2013-09-21 10:09:00,
2013-09-21 03:19:00,64.8,54.7,29.84,SSW,197,0.0,5.0,70,0.00,,,-99.99,Weather View 32 v60,2013-09-21 10:19:00,
2013-09-21 03:29:00,64.9,54.5,29.84,NW,311,0.0,5.0,69,0.00,,,-99.99,Weather View 32 v60,2013-09-21 10:29:00,
2013-09-21 03:39:00,65.1,54.7,29.84,SSW,196,0.0,5.0,69,0.00,,,-99.99,Weather View 32 v60,2013-09-21 10:39:00,
2013-09-21 03:49:00,65.1,54.3,29.84,ESE,121,0.0,4.0,68,0.00,,,-99.99,Weather View 32 v60,2013-09-21 10:49:00,
2013-09-21 03:59:00,65.1,54.3,29.84,South,181,0.0,4.0,68,0.00,,,-99.99,Weather View 32 v60,2013-09-21 10:59:00,
2013-09-21 04:09:00,65.3,54.4,29.84,SW,225,0.0,6.0,68,0.00,,,-99.99,Weather View 32 v60,2013-09-21 11:09:00,
2013-09-21 04:19:00,65.1,54.7,29.84,SSW,201,0.0,6.0,69,0.00,,,-99.99,Weather View 32 v60,2013-09-21 11:19:00,
2013-09-21 04:29:00,64.9,55.7,29.84,West,263,0.0,6.0,72,0.00,,,-99.99,Weather View 32 v60,2013-09-21 11:29:00,
2013-09-21 04:39:00,64.4,56.3,29.84,SW,218,0.0,6.0,75,0.00,,,-99.99,Weather View 32 v60,2013-09-21 11:39:00,
2013-09-21 04:49:00,64.0,56.7,29.84,WSW,242,0.0,6.0,77,0.00,,,-99.99,Weather View 32 v60,2013-09-21 11:49:00,
2013-09-21 04:59:00,63.9,56.8,29.84,SSE,162,0.0,6.0,78,0.00,,,-99.99,Weather View 32 v60,2013-09-21 11:59:00,
2013-09-21 05:09:00,63.7,57.0,29.84,SSW,209,0.0,0.0,79,0.00,,,-99.99,Weather View 32 v60,2013-09-21 12:09:00,
2013-09-21 05:19:00,63.9,57.2,29.84,NW,313,0.0,0.0,79,0.00,,,-99.99,Weather View 32 v60,2013-09-21 12:19:00,
2013-09-21 05:29:00,63.9,57.2,29.84,South,170,0.0,0.0,79,0.00,,,-99.99,Weather View 32 v60,2013-09-21 12:29:00,
2013-09-21 05:39:00,64.0,56.7,29.84,WSW,253,0.0,0.0,77,0.00,,,-99.99,Weather View 32 v60,2013-09-21 12:39:00,
2013-09-21 05:49:00,64.0,56.3,29.84,WSW,237,0.0,4.0,76,0.00,,,-99.99,Weather View 32 v60,2013-09-21 12:49:00,
2013-09-21 05:59:00,64.0,56.3,29.84,WSW,246,0.0,4.0,76,0.00,,,-99.99,Weather View 32 v60,2013-09-21 12:59:00,
2013-09-21 06:09:00,64.0,56.3,29.84,WSW,245,0.0,4.0,76,0.00,,,-99.99,Weather View 32 v60,2013-09-21 13:09:00,
2013-09-21 06:19:00,63.9,56.1,29.84,SW,221,0.0,4.0,76,0.00,,,-99.99,Weather View 32 v60,2013-09-21 13:19:00,
2013-09-21 06:29:00,63.9,56.5,29.84,West,265,0.0,6.0,77,0.00,,,-99.99,Weather View 32 v60,2013-09-21 13:29:00,
2013-09-21 06:39:00,63.9,56.5,29.84,NNW,332,0.0,6.0,77,0.00,,,-99.99,Weather View 32 v60,2013-09-21 13:39:00,
2013-09-21 06:49:00,63.7,56.3,29.84,WSW,237,0.0,8.0,77,0.00,,,-99.99,Weather View 32 v60,2013-09-21 13:49:00,
2013-09-21 06:59:00,63.5,56.1,29.84,SW,225,0.0,8.0,77,0.00,,,-99.99,Weather View 32 v60,2013-09-21 13:59:00,
2013-09-21 07:09:00,63.3,56.0,29.84,West,271,0.0,8.0,77,0.00,,,-99.99,Weather View 32 v60,2013-09-21 14:09:00,
2013-09-21 07:19:00,63.1,55.8,29.84,SSW,203,0.0,8.0,77,0.00,,,-99.99,Weather View 32 v60,2013-09-21 14:19:00,
2013-09-21 07:29:00,63.0,55.6,29.84,SW,229,0.0,8.0,77,0.00,,,-99.99,Weather View 32 v60,2013-09-21 14:29:00,
2013-09-21 07:39:00,62.8,55.8,29.84,WNW,287,0.0,8.0,78,0.00,,,-99.99,Weather View 32 v60,2013-09-21 14:39:00,
2013-09-21 07:49:00,62.6,55.6,29.84,SW,228,0.0,5.0,78,0.00,,,-99.99,Weather View 32 v60,2013-09-21 14:49:00,
2013-09-21 07:59:00,62.8,55.4,29.84,ESE,116,0.0,5.0,77,0.00,,,-99.99,Weather View 32 v60,2013-09-21 14:59:00,
2013-09-21 08:09:00,63.1,55.4,29.84,SW,222,0.0,0.0,76,0.00,,,-99.99,Weather View 32 v60,2013-09-21 15:09:00,
2013-09-21 08:19:00,63.7,54.5,29.84,NNW,328,0.0,0.0,72,0.00,,,-99.99,Weather View 32 v60,2013-09-21 15:19:00,
2013-09-21 08:29:00,64.4,54.0,29.84,WSW,252,0.0,0.0,69,0.00,,,-99.99,Weather View 32 v60,2013-09-21 15:29:00,
2013-09-21 08:39:00,65.5,54.6,29.84,SSW,205,0.0,0.0,68,0.00,,,-99.99,Weather View 32 v60,2013-09-21 15:39:00,
2013-09-21 08:49:00,66.6,54.8,29.84,SE,140,0.0,4.0,66,0.00,,,-99.99,Weather View 32 v60,2013-09-21 15:49:00,
2013-09-21 08:59:00,67.8,54.3,29.84,SSE,148,0.0,4.0,62,0.00,,,-99.99,Weather View 32 v60,2013-09-21 15:59:00,
2013-09-21 09:09:00,69.1,54.6,29.84,SE,128,0.0,4.0,60,0.00,,,-99.99,Weather View 32 v60,2013-09-21 16:09:00,
2013-09-21 09:19:00,69.6,52.7,29.84,SW,227,0.0,6.0,55,0.00,,,-99.99,Weather View 32 v60,2013-09-21 16:19:00,
2013-09-21 09:29:00,69.8,53.3,29.84,South,186,0.0,6.0,56,0.00,,,-99.99,Weather View 32 v60,2013-09-21 16:29:00,
2013-09-21 09:39:00,70.9,52.3,29.84,SE,130,0.0,6.0,52,0.00,,,-99.99,Weather View 32 v60,2013-09-21 16:39:00,
2013-09-21 09:49:00,71.1,51.4,29.84,South,183,0.0,6.0,50,0.00,,,-99.99,Weather View 32 v60,2013-09-21 16:49:00,
2013-09-21 09:59:00,70.7,51.1,29.84,West,278,0.0,6.0,50,0.00,,,-99.99,Weather View 32 v60,2013-09-21 16:59:00,
2013-09-21 10:09:00,70.7,48.8,29.84,SSE,147,0.0,7.0,46,0.00,,,-99.99,Weather View 32 v60,2013-09-21 17:09:00,
2013-09-21 10:19:00,70.7,50.0,29.84,SSW,211,0.0,7.0,48,0.00,,,-99.99,Weather View 32 v60,2013-09-21 17:19:00,
2013-09-21 10:25:00,70.7,50.0,29.84,SSW,211,0.0,7.0,48,0.00,,,-99.99,Weather View 32 v60,2013-09-21 17:25:00,
2013-09-21 10:39:00,71.6,49.7,29.84,SE,142,0.0,7.0,46,0.00,,,-99.99,Weather View 32 v60,2013-09-21 17:39:00,
2013-09-21 10:49:00,72.0,49.4,29.84,South,175,0.0,7.0,45,0.00,,,-99.99,Weather View 32 v60,2013-09-21 17:49:00,
2013-09-21 10:59:00,71.8,48.6,29.84,West,261,0.0,7.0,44,0.00,,,-99.99,Weather View 32 v60,2013-09-21 17:59:00,
2013-09-21 11:09:00,70.9,48.4,29.84,SSW,203,0.0,7.0,45,0.00,,,-99.99,Weather View 32 v60,2013-09-21 18:09:00,
2013-09-21 11:19:00,69.6,48.4,29.84,East,100,0.0,7.0,47,0.00,,,-99.99,Weather View 32 v60,2013-09-21 18:19:00,
2013-09-21 11:25:00,69.6,48.4,29.84,East,100,0.0,7.0,47,0.00,,,-99.99,Weather View 32 v60,2013-09-21 18:25:00,
2013-09-21 11:39:00,68.4,54.3,29.84,SW,215,4.0,8.0,61,0.00,,,-99.99,Weather View 32 v60,2013-09-21 18:39:00,
2013-09-21 11:49:00,67.6,53.7,29.84,WSW,239,4.0,10.0,61,0.00,,,-99.99,Weather View 32 v60,2013-09-21 18:49:00,
2013-09-21 11:59:00,67.1,55.7,29.87,West,270,0.0,11.0,67,0.00,,,-99.99,Weather View 32 v60,2013-09-21 18:59:00,
2013-09-21 12:09:00,66.4,56.3,29.87,WNW,282,0.0,11.0,70,0.00,,,-99.99,Weather View 32 v60,2013-09-21 19:09:00,
2013-09-21 12:19:00,65.8,57.3,29.87,SSW,211,0.0,11.0,74,0.00,,,-99.99,Weather View 32 v60,2013-09-21 19:19:00,
2013-09-21 12:26:00,65.8,57.3,29.87,SSW,211,0.0,11.0,74,0.00,,,-99.99,Weather View 32 v60,2013-09-21 19:26:00,
2013-09-21 12:39:00,64.4,58.4,29.87,SSE,148,0.0,11.0,81,0.16,,,-99.99,Weather View 32 v60,2013-09-21 19:39:00,
2013-09-21 12:49:00,63.7,58.4,29.87,East,93,0.0,11.0,83,0.28,,,-99.99,Weather View 32 v60,2013-09-21 19:49:00,
2013-09-21 12:59:00,63.5,58.9,29.87,South,171,0.0,11.0,85,0.35,,,-99.99,Weather View 32 v60,2013-09-21 19:59:00,
2013-09-21 13:09:00,63.1,58.9,29.87,North,0,0.0,7.0,86,0.39,,,-99.99,Weather View 32 v60,2013-09-21 20:09:00,
2013-09-21 13:19:00,63.0,58.7,29.87,SSW,213,0.0,7.0,86,0.39,,,-99.99,Weather View 32 v60,2013-09-21 20:19:00,
2013-09-21 13:26:00,63.0,58.7,29.87,SSW,213,0.0,7.0,86,0.39,,,-99.99,Weather View 32 v60,2013-09-21 20:26:00,
2013-09-21 13:39:00,63.3,58.1,29.87,SW,230,0.0,7.0,83,0.28,,,-99.99,Weather View 32 v60,2013-09-21 20:39:00,
2013-09-21 13:49:00,64.0,58.8,29.87,NNW,333,0.0,7.0,83,0.16,,,-99.99,Weather View 32 v60,2013-09-21 20:49:00,
2013-09-21 13:59:00,64.0,58.1,29.84,NE,41,0.0,7.0,81,0.08,,,-99.99,Weather View 32 v60,2013-09-21 20:59:00,
2013-09-21 14:09:00,63.7,57.4,29.84,West,268,0.0,7.0,80,0.04,,,-99.99,Weather View 32 v60,2013-09-21 21:09:00,
2013-09-21 14:19:00,63.5,58.2,29.84,West,260,0.0,7.0,83,0.04,,,-99.99,Weather View 32 v60,2013-09-21 21:19:00,
2013-09-21 14:27:00,63.5,58.2,29.84,West,260,0.0,7.0,83,0.04,,,-99.99,Weather View 32 v60,2013-09-21 21:27:00,
2013-09-21 14:39:00,65.3,59.3,29.84,WSW,250,0.0,3.0,81,0.00,,,-99.99,Weather View 32 v60,2013-09-21 21:39:00,
2013-09-21 14:49:00,65.7,58.9,29.84,SW,219,0.0,3.0,79,0.00,,,-99.99,Weather View 32 v60,2013-09-21 21:49:00,
2013-09-21 14:59:00,65.1,57.7,29.84,West,279,0.0,3.0,77,0.00,,,-99.99,Weather View 32 v60,2013-09-21 21:59:00,
2013-09-21 15:09:00,64.9,57.9,29.84,SW,230,0.0,7.0,78,0.00,,,-99.99,Weather View 32 v60,2013-09-21 22:09:00,
2013-09-21 15:19:00,64.8,58.1,29.84,WNW,283,0.0,7.0,79,0.04,,,-99.99,Weather View 32 v60,2013-09-21 22:19:00,
2013-09-21 15:27:00,64.8,58.1,29.84,WNW,283,0.0,7.0,79,0.04,,,-99.99,Weather View 32 v60,2013-09-21 22:27:00,
2013-09-21 15:39:00,64.0,57.4,29.84,WSW,256,0.0,7.0,79,0.04,,,-99.99,Weather View 32 v60,2013-09-21 22:39:00,
2013-09-21 15:49:00,65.3,57.9,29.84,SE,143,0.0,7.0,77,0.04,,,-99.99,Weather View 32 v60,2013-09-21 22:49:00,
2013-09-21 15:59:00,65.7,56.4,29.84,West,262,0.0,7.0,72,0.04,,,-99.99,Weather View 32 v60,2013-09-21 22:59:00,
2013-09-21 16:09:00,67.3,57.9,29.84,SSW,213,0.0,6.0,72,0.04,,,-99.99,Weather View 32 v60,2013-09-21 23:09:00,
2013-09-21 16:19:00,67.1,56.2,29.84,WSW,256,3.0,7.0,68,0.00,,,-99.99,Weather View 32 v60,2013-09-21 23:19:00,
2013-09-21 16:28:00,67.1,56.2,29.84,WSW,256,3.0,7.0,68,0.00,,,-99.99,Weather View 32 v60,2013-09-21 23:28:00,
2013-09-21 16:39:00,66.0,55.5,29.84,WSW,255,0.0,9.0,69,0.00,,,-99.99,Weather View 32 v60,2013-09-21 23:39:00,
2013-09-21 16:49:00,66.2,54.1,29.84,WNW,289,0.0,9.0,65,0.00,,,-99.99,Weather View 32 v60,2013-09-21 23:49:00,
2013-09-21 16:59:00,67.3,52.9,29.84,WSW,247,4.0,12.0,60,0.00,,,-99.99,Weather View 32 v60,2013-09-21 23:59:00,
2013-09-21 17:09:00,67.1,54.0,29.84,WSW,255,0.0,12.0,63,0.00,,,-99.99,Weather View 32 v60,2013-09-22 00:09:00,
2013-09-21 17:19:00,67.5,53.5,29.84,WSW,247,0.0,12.0,61,0.00,,,-99.99,Weather View 32 v60,2013-09-22 00:19:00,
2013-09-21 17:28:00,67.5,53.5,29.84,WSW,247,0.0,12.0,61,0.00,,,-99.99,Weather View 32 v60,2013-09-22 00:28:00,
2013-09-21 17:39:00,66.0,52.6,29.84,WSW,247,5.0,12.0,62,0.00,,,-99.99,Weather View 32 v60,2013-09-22 00:39:00,
2013-09-21 17:49:00,64.9,52.4,29.84,WSW,257,0.0,12.0,64,0.00,,,-99.99,Weather View 32 v60,2013-09-22 00:49:00,
2013-09-21 17:59:00,64.4,52.8,29.84,SSW,211,4.0,10.0,66,0.00,,,-99.99,Weather View 32 v60,2013-09-22 00:59:00,
2013-09-21 18:09:00,63.9,52.7,29.84,SW,216,0.0,10.0,67,0.00,,,-99.99,Weather View 32 v60,2013-09-22 01:09:00,
2013-09-21 18:19:00,63.3,52.9,29.84,SW,222,0.0,10.0,69,0.00,,,-99.99,Weather View 32 v60,2013-09-22 01:19:00,
2013-09-21 18:29:00,63.3,52.9,29.84,SW,222,0.0,10.0,69,0.00,,,-99.99,Weather View 32 v60,2013-09-22 01:29:00,
2013-09-21 18:39:00,62.6,52.7,29.84,West,277,0.0,9.0,70,0.00,,,-99.99,Weather View 32 v60,2013-09-22 01:39:00,
2013-09-21 18:59:00,61.9,53.1,29.87,West,264,0.0,9.0,73,0.00,,,-99.99,Weather View 32 v60,2013-09-22 01:59:00,
2013-09-21 19:09:00,61.5,53.1,29.87,North,351,0.0,9.0,74,0.00,,,-99.99,Weather View 32 v60,2013-09-22 02:09:00,
2013-09-21 19:19:00,61.0,52.6,29.87,SSW,211,0.0,9.0,74,0.00,,,-99.99,Weather View 32 v60,2013-09-22 02:19:00,
2013-09-21 19:29:00,61.0,52.6,29.87,SSW,211,0.0,9.0,74,0.00,,,-99.99,Weather View 32 v60,2013-09-22 02:29:00,
2013-09-21 19:39:00,60.3,53.0,29.87,SW,225,0.0,6.0,77,0.00,,,-99.99,Weather View 32 v60,2013-09-22 02:39:00,
2013-09-21 19:49:00,59.9,53.4,29.87,SSW,205,0.0,6.0,79,0.00,,,-99.99,Weather View 32 v60,2013-09-22 02:49:00,
2013-09-21 19:59:00,59.5,53.3,29.87,WSW,239,0.0,5.0,80,0.00,,,-99.99,Weather View 32 v60,2013-09-22 02:59:00,
2013-09-21 20:09:00,59.4,53.5,29.87,West,267,0.0,5.0,81,0.00,,,-99.99,Weather View 32 v60,2013-09-22 03:09:00,
2013-09-21 20:19:00,59.2,53.3,29.87,West,271,0.0,5.0,81,0.00,,,-99.99,Weather View 32 v60,2013-09-22 03:19:00,
2013-09-21 20:30:00,59.2,53.7,29.90,South,187,0.0,5.0,82,0.00,,,-99.99,Weather View 32 v60,2013-09-22 03:30:00,
2013-09-21 20:39:00,59.4,53.8,29.90,WSW,257,0.0,9.0,82,0.00,,,-99.99,Weather View 32 v60,2013-09-22 03:39:00,
2013-09-21 20:49:00,59.2,53.3,29.90,SW,231,3.0,9.0,81,0.00,,,-99.99,Weather View 32 v60,2013-09-22 03:49:00,
2013-09-21 20:59:00,59.4,53.5,29.90,WSW,248,0.0,9.0,81,0.00,,,-99.99,Weather View 32 v60,2013-09-22 03:59:00,
2013-09-21 21:09:00,59.2,53.7,29.90,SW,233,0.0,9.0,82,0.00,,,-99.99,Weather View 32 v60,2013-09-22 04:09:00,
2013-09-21 21:19:00,59.0,53.8,29.90,West,261,0.0,9.0,83,0.00,,,-99.99,Weather View 32 v60,2013-09-22 04:19:00,
2013-09-21 21:29:00,59.0,53.8,29.90,SW,235,4.0,9.0,83,0.00,,,-99.99,Weather View 32 v60,2013-09-22 04:29:00,
2013-09-21 21:39:00,59.2,54.0,29.90,West,270,4.0,12.0,83,0.00,,,-99.99,Weather View 32 v60,2013-09-22 04:39:00,
2013-09-21 21:49:00,59.0,53.8,29.90,West,259,0.0,12.0,83,0.00,,,-99.99,Weather View 32 v60,2013-09-22 04:49:00,
2013-09-21 21:59:00,58.8,54.0,29.90,SSW,208,0.0,12.0,84,0.00,,,-99.99,Weather View 32 v60,2013-09-22 04:59:00,
2013-09-21 22:09:00,58.8,54.0,29.90,SSW,192,0.0,12.0,84,0.00,,,-99.99,Weather View 32 v60,2013-09-22 05:09:00,
2013-09-21 22:19:00,58.8,54.3,29.90,SW,227,0.0,12.0,85,0.00,,,-99.99,Weather View 32 v60,2013-09-22 05:19:00,
2013-09-21 22:30:00,58.6,54.1,29.90,West,281,0.0,12.0,85,0.00,,,-99.99,Weather View 32 v60,2013-09-22 05:30:00,
2013-09-21 22:31:00,58.6,54.1,29.90,West,281,0.0,12.0,85,0.00,,,-99.99,Weather View 32 v60,2013-09-22 05:31:00,
2013-09-21 22:39:00,58.5,54.0,29.90,WNW,289,0.0,8.0,85,0.00,,,-99.99,Weather View 32 v60,2013-09-22 05:39:00,
2013-09-21 22:49:00,58.1,53.6,29.93,NW,314,0.0,7.0,85,0.00,,,-99.99,Weather View 32 v60,2013-09-22 05:49:00,
2013-09-21 22:59:00,57.7,53.6,29.93,WNW,288,0.0,7.0,86,0.00,,,-99.99,Weather View 32 v60,2013-09-22 05:59:00,
2013-09-21 23:09:00,57.4,53.2,29.93,ENE,77,0.0,7.0,86,0.00,,,-99.99,Weather View 32 v60,2013-09-22 06:09:00,
2013-09-21 23:19:00,57.4,54.2,29.93,SW,231,0.0,7.0,89,0.00,,,-99.99,Weather View 32 v60,2013-09-22 06:19:00,
2013-09-21 23:29:00,57.0,53.8,29.90,SW,231,0.0,0.0,89,0.00,,,-99.99,Weather View 32 v60,2013-09-22 06:29:00,
2013-09-21 23:39:00,56.7,53.4,29.90,SW,231,0.0,0.0,89,0.00,,,-99.99,Weather View 32 v60,2013-09-22 06:39:00,
2013-09-21 23:49:00,56.1,53.2,29.93,WSW,251,0.0,0.0,90,0.00,,,-99.99,Weather View 32 v60,2013-09-22 06:49:00,
2013-09-21 23:59:00,55.9,53.3,29.93,SW,235,0.0,0.0,91,0.00,,,-99.99,Weather View 32 v60,2013-09-22 06:59:00,